TAF KENV
KENV 081740Z 0818/0918 VRB04KT P6SM BKN200 FM090000 27010KT P6SM OVC100 FM090900 01010KT P6SM VCSH BKN040 OVC060 FM091000 35006KT 5SM -RASN BKN025 OVC030 FM091200 32008KT 3SM -SN BKN010 OVC015=
METAR KENV
WC KENV
WS KENV
WV KENV